Time;durP1;ratioP1;P1;durP2;ratioP2;P2;SDS_P1;SDS_P2;PMS_P1;PMS_P2;Temp;Humidity;BMP_temperature;BMP_pressure;BME280_temperature;BME280_humidity;BME280_pressure;Samples;Min_cycle;Max_cycle;Signal;HPM_P1;HPM_P2
2022/06/25 00:00:34;;;;;;;0.40;0.40;;;18.40;99.90;;;;;;4999036;28;95286;-35
2022/06/25 00:02:59;;;;;;;0.20;0.10;;;18.30;99.90;;;;;;4998431;28;95947;-36
2022/06/25 00:05:28;;;;;;;0.55;0.55;;;18.30;99.90;;;;;;4998211;28;94135;-34
2022/06/25 00:07:55;;;;;;;0.40;0.32;;;18.30;99.90;;;;;;4998180;28;92653;-34
2022/06/25 00:10:20;;;;;;;0.30;0.28;;;18.30;99.90;;;;;;4997693;28;95494;-36
2022/06/25 00:12:47;;;;;;;0.43;0.43;;;18.30;99.90;;;;;;4998256;28;94764;-36
2022/06/25 00:15:13;;;;;;;0.20;0.10;;;18.30;99.90;;;;;;4998669;28;93694;-35
2022/06/25 00:17:38;;;;;;;0.50;0.43;;;18.20;99.90;;;;;;4998418;28;92782;-35
2022/06/25 00:20:05;;;;;;;0.30;0.20;;;18.20;99.90;;;;;;4998061;28;94966;-36
2022/06/25 00:22:31;;;;;;;0.57;0.55;;;18.20;99.90;;;;;;4998417;28;95436;-37
2022/06/25 00:24:57;;;;;;;0.50;0.50;;;18.20;99.90;;;;;;4997637;28;94231;-38
2022/06/25 00:27:22;;;;;;;0.20;0.10;;;18.10;99.90;;;;;;4999089;28;92995;-34
2022/06/25 00:29:48;;;;;;;0.40;0.30;;;18.20;99.90;;;;;;4998213;28;94735;-36
2022/06/25 00:32:14;;;;;;;0.30;0.30;;;18.10;99.90;;;;;;4997181;28;93617;-34
2022/06/25 00:34:40;;;;;;;0.22;0.22;;;18.10;99.90;;;;;;4997740;28;95530;-35
2022/06/25 00:37:06;;;;;;;0.20;0.10;;;18.00;99.90;;;;;;4997565;28;93369;-34
2022/06/25 00:39:33;;;;;;;0.20;0.20;;;18.10;99.90;;;;;;4998609;28;94337;-40
2022/06/25 00:41:59;;;;;;;0.30;0.30;;;18.10;99.90;;;;;;4998616;28;95132;-33
2022/06/25 00:44:29;;;;;;;0.75;0.75;;;18.00;99.90;;;;;;4997357;28;92864;-35
2022/06/25 00:46:55;;;;;;;0.20;0.20;;;18.00;99.90;;;;;;4995497;28;95430;-34
2022/06/25 00:49:20;;;;;;;0.65;0.65;;;18.00;99.90;;;;;;4997701;28;94826;-37
2022/06/25 00:51:49;;;;;;;0.47;0.43;;;17.90;99.90;;;;;;4997736;28;94700;-37
2022/06/25 00:54:17;;;;;;;0.20;0.20;;;17.90;99.90;;;;;;4997704;28;94613;-35
2022/06/25 00:56:51;;;;;;;0.80;0.80;;;17.90;99.90;;;;;;4996497;28;92478;-35
2022/06/25 00:59:26;;;;;;;0.20;0.13;;;17.90;99.90;;;;;;4996640;28;95403;-36
2022/06/25 01:01:52;;;;;;;0.20;0.13;;;17.90;99.90;;;;;;4996954;28;95159;-34
2022/06/25 01:04:17;;;;;;;0.50;0.50;;;17.80;99.90;;;;;;4997655;28;92156;-35
2022/06/25 01:06:43;;;;;;;0.40;0.40;;;17.80;99.90;;;;;;5028183;22;94570;-33
2022/06/25 01:09:09;;;;;;;0.20;0.13;;;17.80;99.90;;;;;;4977204;28;94923;-36
2022/06/25 01:11:35;;;;;;;0.20;0.10;;;17.80;99.90;;;;;;4977479;28;96169;-34
2022/06/25 01:14:06;;;;;;;0.20;0.03;;;17.80;99.90;;;;;;4976965;28;92526;-35
2022/06/25 01:16:32;;;;;;;0.20;0.20;;;17.70;99.90;;;;;;4978175;28;93840;-35
2022/06/25 01:18:57;;;;;;;1.10;0.88;;;17.70;99.90;;;;;;4976884;28;94911;-38
2022/06/25 01:21:23;;;;;;;0.20;0.10;;;17.70;99.90;;;;;;4977409;28;94258;-33
2022/06/25 01:23:49;;;;;;;0.20;0.10;;;17.70;99.90;;;;;;4977055;28;93624;-35
2022/06/25 01:26:14;;;;;;;0.25;0.25;;;17.70;99.90;;;;;;4977358;28;93437;-35
2022/06/25 01:28:40;;;;;;;0.30;0.22;;;17.70;99.90;;;;;;4977074;28;94434;-35
2022/06/25 01:31:05;;;;;;;0.63;0.20;;;17.70;99.90;;;;;;4977384;28;95159;-36
2022/06/25 01:33:31;;;;;;;0.20;0.15;;;17.60;99.90;;;;;;4977167;28;92777;-34
2022/06/25 01:35:57;;;;;;;0.20;0.20;;;17.60;99.90;;;;;;4977734;28;92177;-34
2022/06/25 01:38:22;;;;;;;0.40;0.40;;;17.60;99.90;;;;;;4977355;28;94648;-34
2022/06/25 01:40:48;;;;;;;0.35;0.35;;;17.60;99.90;;;;;;4977487;28;94558;-38
2022/06/25 01:43:13;;;;;;;0.20;0.00;;;17.50;99.90;;;;;;4977307;28;93099;-33
2022/06/25 01:45:40;;;;;;;0.60;0.60;;;17.50;99.90;;;;;;4976311;28;94742;-33
2022/06/25 01:48:07;;;;;;;0.30;0.30;;;17.50;99.90;;;;;;4976758;28;95099;-34
2022/06/25 01:50:34;;;;;;;0.45;0.45;;;17.50;99.90;;;;;;4977015;28;96967;-35
2022/06/25 01:53:00;;;;;;;0.20;0.10;;;17.50;99.90;;;;;;4976791;28;93637;-39
2022/06/25 01:55:25;;;;;;;1.75;1.20;;;17.40;99.90;;;;;;4977401;28;94499;-35
2022/06/25 01:57:51;;;;;;;0.32;0.32;;;17.40;99.90;;;;;;4976673;28;94705;-34
2022/06/25 02:00:21;;;;;;;0.20;0.10;;;17.40;99.90;;;;;;4976124;28;95311;-38
2022/06/25 02:02:47;;;;;;;0.65;0.20;;;17.40;99.90;;;;;;4976916;28;92946;-37
2022/06/25 02:05:14;;;;;;;0.20;0.10;;;17.40;99.90;;;;;;4976675;28;93550;-34
2022/06/25 02:07:40;;;;;;;0.20;0.10;;;17.30;99.90;;;;;;4975358;28;96373;-34
2022/06/25 02:10:07;;;;;;;0.20;0.20;;;17.30;99.90;;;;;;4976415;28;94529;-35
2022/06/25 02:12:32;;;;;;;0.50;0.50;;;17.30;99.90;;;;;;4976818;28;93959;-35
2022/06/25 02:14:58;;;;;;;0.20;0.08;;;17.30;99.90;;;;;;4976118;28;93119;-35
2022/06/25 02:17:24;;;;;;;0.20;0.20;;;17.20;99.90;;;;;;4977108;28;94699;-34
2022/06/25 02:19:49;;;;;;;0.20;0.10;;;17.20;99.90;;;;;;4976013;28;94546;-34
2022/06/25 02:22:15;;;;;;;0.32;0.30;;;17.20;99.90;;;;;;4976520;28;92631;-36
2022/06/25 02:24:42;;;;;;;0.32;0.32;;;17.10;99.90;;;;;;4976655;28;92548;-33
2022/06/25 02:27:08;;;;;;;0.40;0.20;;;17.10;99.90;;;;;;4976483;28;94061;-35
2022/06/25 02:29:34;;;;;;;0.20;0.05;;;17.00;99.90;;;;;;4976786;28;94469;-37
2022/06/25 02:32:00;;;;;;;0.20;0.00;;;17.00;99.90;;;;;;4976944;28;93538;-34
2022/06/25 02:34:25;;;;;;;0.28;0.28;;;17.00;99.90;;;;;;4975768;28;92111;-36
2022/06/25 02:36:52;;;;;;;0.20;0.00;;;17.10;99.90;;;;;;4975603;28;95706;-35
2022/06/25 02:39:17;;;;;;;0.55;0.55;;;17.10;99.90;;;;;;4976129;28;95431;-37
2022/06/25 02:41:44;;;;;;;0.28;0.28;;;17.00;99.90;;;;;;4976653;28;93496;-35
2022/06/25 02:44:10;;;;;;;1.10;1.00;;;17.00;99.90;;;;;;4976825;28;94065;-34
2022/06/25 02:46:36;;;;;;;0.30;0.25;;;17.10;99.90;;;;;;4975761;28;94366;-37
2022/06/25 02:49:02;;;;;;;0.35;0.35;;;17.00;99.90;;;;;;4976091;28;94604;-35
2022/06/25 02:51:28;;;;;;;0.98;0.95;;;17.10;99.90;;;;;;4977005;28;93376;-36
2022/06/25 02:53:55;;;;;;;0.22;0.22;;;17.00;99.90;;;;;;4975637;28;92684;-36
2022/06/25 02:59:06;;;;;;;0.20;0.15;;;17.00;99.90;;;;;;4975867;28;94519;-35
2022/06/25 03:01:32;;;;;;;0.50;0.50;;;17.00;99.90;;;;;;4975928;28;94173;-38
2022/06/25 03:03:58;;;;;;;0.35;0.28;;;17.00;99.90;;;;;;4976188;28;93068;-35
2022/06/25 03:06:24;;;;;;;0.93;0.93;;;17.00;99.90;;;;;;4975360;28;94604;-34
2022/06/25 03:08:50;;;;;;;0.20;0.17;;;17.00;99.90;;;;;;4975131;28;94526;-38
2022/06/25 03:11:18;;;;;;;0.60;0.60;;;17.00;99.90;;;;;;4976351;28;93316;-34
2022/06/25 03:13:43;;;;;;;0.20;0.10;;;17.00;99.90;;;;;;4975201;28;94477;-34
2022/06/25 03:16:10;;;;;;;0.20;0.10;;;17.00;99.90;;;;;;4976665;28;94501;-36
2022/06/25 03:18:36;;;;;;;0.85;0.75;;;17.00;99.90;;;;;;4975748;28;96090;-34
2022/06/25 03:21:02;;;;;;;1.40;0.52;;;17.00;99.90;;;;;;4979530;28;95271;-35
2022/06/25 03:23:29;;;;;;;0.20;0.10;;;17.00;99.90;;;;;;4979338;28;93793;-35
2022/06/25 03:25:55;;;;;;;0.47;0.47;;;17.00;99.90;;;;;;4978319;28;95654;-35
2022/06/25 03:28:21;;;;;;;0.38;0.35;;;17.00;99.90;;;;;;4979253;28;95331;-34
2022/06/25 03:30:47;;;;;;;0.75;0.73;;;17.00;99.90;;;;;;4979389;28;93045;-35
2022/06/25 03:33:13;;;;;;;0.85;0.85;;;17.00;99.90;;;;;;4979220;28;94451;-34
2022/06/25 03:35:39;;;;;;;0.63;0.63;;;17.00;99.90;;;;;;4978347;28;94745;-33
2022/06/25 03:38:05;;;;;;;0.80;0.80;;;17.00;99.90;;;;;;4979759;28;94512;-32
2022/06/25 03:40:31;;;;;;;0.55;0.55;;;17.00;99.90;;;;;;4979405;28;93259;-34
2022/06/25 03:42:58;;;;;;;0.20;0.03;;;17.00;99.90;;;;;;4979417;28;93801;-34
2022/06/25 03:45:24;;;;;;;0.27;0.27;;;17.00;99.90;;;;;;4978626;28;94428;-35
2022/06/25 03:47:52;;;;;;;0.68;0.68;;;17.00;99.90;;;;;;4978446;28;94479;-35
2022/06/25 03:50:19;;;;;;;0.70;0.70;;;17.00;99.90;;;;;;4978985;28;94042;-34
2022/06/25 03:52:45;;;;;;;0.35;0.35;;;17.10;99.90;;;;;;4979103;28;92296;-37
2022/06/25 03:55:11;;;;;;;0.38;0.38;;;17.20;99.90;;;;;;4960144;28;95064;-35
2022/06/25 03:57:37;;;;;;;0.40;0.40;;;17.20;99.90;;;;;;4978418;28;94608;-36
2022/06/25 04:00:05;;;;;;;0.20;0.10;;;17.20;99.90;;;;;;4979232;28;93194;-33
2022/06/25 04:02:31;;;;;;;;;;;17.20;99.90;;;;;;4979120;28;93047;-34
2022/06/25 04:04:57;;;;;;;0.20;0.20;;;17.20;99.90;;;;;;4978477;28;94922;-33
2022/06/25 04:07:22;;;;;;;1.75;1.65;;;17.20;99.90;;;;;;4979160;28;95041;-32
2022/06/25 04:09:48;;;;;;;0.50;0.47;;;17.20;99.90;;;;;;4977802;28;93316;-34
2022/06/25 04:12:13;;;;;;;1.15;1.05;;;17.20;99.90;;;;;;4978841;28;92248;-36
2022/06/25 04:14:39;;;;;;;0.30;0.30;;;17.20;99.90;;;;;;4976843;28;95662;-34
2022/06/25 04:17:06;;;;;;;0.28;0.28;;;17.20;99.90;;;;;;4978762;28;95057;-35
2022/06/25 04:19:39;;;;;;;2.03;1.25;;;17.30;99.90;;;;;;4978973;28;92912;-33
2022/06/25 04:22:09;;;;;;;0.20;0.10;;;17.30;99.90;;;;;;4978664;28;93604;-35
2022/06/25 04:24:35;;;;;;;0.30;0.30;;;17.20;99.90;;;;;;4978555;28;95216;-39
2022/06/25 04:27:01;;;;;;;0.88;0.85;;;17.30;99.90;;;;;;4978876;28;93958;-33
2022/06/25 04:29:28;;;;;;;1.15;0.22;;;17.40;99.90;;;;;;4978669;28;94285;-34
2022/06/25 04:31:53;;;;;;;1.23;0.60;;;17.50;99.90;;;;;;4978085;28;93838;-35
2022/06/25 04:34:19;;;;;;;0.95;0.95;;;17.60;99.90;;;;;;4977263;28;94801;-36
2022/06/25 04:36:44;;;;;;;0.38;0.38;;;17.80;99.90;;;;;;4977852;28;94461;-35
2022/06/25 04:39:10;;;;;;;0.20;0.20;;;18.00;99.90;;;;;;4978327;28;93114;-33
2022/06/25 04:41:36;;;;;;;0.20;0.10;;;18.20;99.90;;;;;;4978301;28;93997;-34
2022/06/25 04:44:01;;;;;;;5.93;1.55;;;18.40;99.90;;;;;;4977629;28;94413;-35
2022/06/25 04:46:30;;;;;;;0.28;0.28;;;18.50;99.90;;;;;;4977397;28;95007;-35
2022/06/25 04:48:59;;;;;;;0.20;0.20;;;18.90;99.90;;;;;;4977847;28;92215;-33
2022/06/25 04:51:26;;;;;;;0.20;0.17;;;19.00;99.90;;;;;;4977544;28;92677;-34
2022/06/25 04:53:57;;;;;;;0.30;0.30;;;19.00;99.90;;;;;;4977827;28;94911;-35
2022/06/25 04:56:28;;;;;;;0.32;0.32;;;19.20;99.90;;;;;;4977247;28;94547;-37
2022/06/25 04:58:55;;;;;;;0.30;0.30;;;19.40;99.90;;;;;;4977858;28;92199;-36
2022/06/25 05:01:21;;;;;;;0.20;0.20;;;19.50;99.90;;;;;;4978132;28;94429;-34
2022/06/25 05:03:47;;;;;;;0.20;0.10;;;19.70;99.90;;;;;;4976448;28;95717;-39
2022/06/25 05:06:13;;;;;;;0.20;0.10;;;19.90;99.90;;;;;;4977013;28;95415;-35
2022/06/25 05:08:40;;;;;;;0.30;0.30;;;20.10;99.90;;;;;;4977640;28;94134;-37
2022/06/25 05:11:06;;;;;;;0.20;0.10;;;20.10;99.90;;;;;;4977401;28;93193;-36
2022/06/25 05:13:31;;;;;;;0.30;0.30;;;20.20;99.90;;;;;;4977191;28;94549;-37
2022/06/25 05:15:57;;;;;;;0.95;0.95;;;20.30;99.90;;;;;;4977580;28;94406;-34
2022/06/25 05:18:22;;;;;;;0.45;0.45;;;20.50;99.90;;;;;;4977653;28;94697;-36
2022/06/25 05:20:48;;;;;;;0.20;0.10;;;20.50;99.90;;;;;;4977776;28;92165;-34
2022/06/25 05:23:14;;;;;;;0.60;0.60;;;20.50;99.90;;;;;;4976767;28;93808;-34
2022/06/25 05:25:41;;;;;;;1.52;0.40;;;20.70;99.90;;;;;;4977152;28;94096;-39
2022/06/25 05:28:07;;;;;;;0.28;0.03;;;20.80;99.90;;;;;;4977634;28;95848;-33
2022/06/25 05:30:33;;;;;;;0.32;0.32;;;20.90;99.90;;;;;;4977074;28;92238;-33
2022/06/25 05:32:58;;;;;;;0.75;0.47;;;21.00;99.90;;;;;;4976663;28;94592;-34
2022/06/25 05:35:25;;;;;;;0.20;0.10;;;21.10;99.90;;;;;;4977259;28;94949;-34
2022/06/25 05:37:51;;;;;;;1.27;0.38;;;21.10;99.90;;;;;;4977018;28;93559;-37
2022/06/25 05:40:17;;;;;;;0.43;0.43;;;21.20;99.90;;;;;;4977618;28;92113;-36
2022/06/25 05:42:43;;;;;;;0.93;0.93;;;20.80;99.90;;;;;;4977247;28;94795;-35
2022/06/25 05:45:09;;;;;;;0.20;0.10;;;21.10;99.90;;;;;;4977614;28;94597;-38
2022/06/25 05:47:35;;;;;;;0.20;0.15;;;21.20;99.90;;;;;;4959041;28;92643;-37
2022/06/25 05:50:00;;;;;;;1.02;0.30;;;21.20;99.90;;;;;;4976245;28;92723;-34
2022/06/25 05:52:26;;;;;;;1.00;0.70;;;21.30;99.90;;;;;;4976479;28;95732;-35
2022/06/25 05:54:52;;;;;;;4.03;3.72;;;21.60;99.90;;;;;;4976635;28;95205;-36
2022/06/25 05:57:19;;;;;;;1.65;1.55;;;21.90;99.90;;;;;;4976768;28;93035;-38
2022/06/25 05:59:45;;;;;;;0.20;0.10;;;21.60;99.90;;;;;;4976747;28;92649;-34
2022/06/25 06:02:11;;;;;;;0.40;0.25;;;21.70;99.90;;;;;;4976331;28;94546;-37
2022/06/25 06:04:37;;;;;;;1.13;1.02;;;21.80;99.90;;;;;;4978593;28;95206;-35
2022/06/25 06:07:02;;;;;;;0.32;0.32;;;22.10;99.90;;;;;;4979257;28;92817;-35
2022/06/25 06:09:29;;;;;;;0.25;0.25;;;22.10;99.90;;;;;;4976090;28;92936;-38
2022/06/25 06:11:55;;;;;;;0.20;0.10;;;22.10;99.90;;;;;;4977004;28;95233;-38
2022/06/25 06:14:21;;;;;;;0.20;0.20;;;22.40;99.90;;;;;;4976230;28;94304;-36
2022/06/25 06:16:47;;;;;;;0.22;0.17;;;22.50;99.90;;;;;;4976197;28;93539;-34
2022/06/25 06:19:13;;;;;;;0.20;0.00;;;22.70;99.90;;;;;;4976769;28;94316;-36
2022/06/25 06:21:38;;;;;;;0.30;0.20;;;23.00;99.90;;;;;;4975682;28;94914;-36
2022/06/25 06:24:04;;;;;;;1.17;1.17;;;23.20;99.90;;;;;;4976873;28;94482;-37
2022/06/25 06:26:30;;;;;;;0.20;0.10;;;23.40;99.90;;;;;;4976683;28;95275;-35
2022/06/25 06:28:55;;;;;;;0.68;0.50;;;23.40;99.90;;;;;;4976664;28;93142;-38
2022/06/25 06:31:21;;;;;;;1.38;0.65;;;23.30;99.90;;;;;;4975847;28;93947;-36
2022/06/25 06:33:47;;;;;;;0.20;0.10;;;23.20;99.90;;;;;;4976265;28;94586;-38
2022/06/25 06:36:13;;;;;;;0.20;0.10;;;23.30;99.90;;;;;;4976451;28;92246;-36
2022/06/25 06:38:39;;;;;;;0.30;0.25;;;23.10;99.90;;;;;;4975475;28;93352;-35
2022/06/25 06:41:05;;;;;;;0.40;0.10;;;23.20;99.90;;;;;;4976288;28;95216;-36
2022/06/25 06:43:31;;;;;;;0.20;0.10;;;23.20;99.90;;;;;;4975594;28;95140;-36
2022/06/25 06:45:56;;;;;;;0.55;0.55;;;23.10;99.90;;;;;;4975637;28;95062;-37
2022/06/25 06:48:22;;;;;;;0.73;0.30;;;23.40;99.90;;;;;;4976854;28;93779;-34
2022/06/25 06:50:48;;;;;;;0.20;0.00;;;23.70;99.90;;;;;;4975375;28;94533;-38
2022/06/25 06:53:14;;;;;;;0.20;0.10;;;23.60;99.90;;;;;;4974224;28;94399;-35
2022/06/25 06:55:39;;;;;;;0.20;0.20;;;23.80;99.90;;;;;;4976519;28;93416;-36
2022/06/25 06:58:05;;;;;;;0.43;0.43;;;24.10;99.90;;;;;;4977098;28;92423;-36
2022/06/25 07:00:30;;;;;;;0.60;0.28;;;24.20;99.90;;;;;;4977448;28;96628;-34
2022/06/25 07:02:56;;;;;;;1.65;1.13;;;24.20;99.90;;;;;;4977077;28;94790;-34
2022/06/25 07:05:21;;;;;;;0.35;0.22;;;24.20;99.90;;;;;;4976893;28;94895;-37
2022/06/25 07:07:47;;;;;;;0.28;0.22;;;24.30;99.90;;;;;;4977257;28;92377;-35
2022/06/25 07:10:14;;;;;;;0.20;0.17;;;24.50;99.90;;;;;;4977992;28;94578;-37
2022/06/25 07:12:40;;;;;;;0.20;0.10;;;24.80;99.90;;;;;;4979705;28;95249;-37
2022/06/25 07:15:06;;;;;;;0.20;0.00;;;24.90;99.90;;;;;;4978760;28;92895;-34
2022/06/25 07:17:32;;;;;;;0.35;0.20;;;24.80;99.90;;;;;;4977852;28;93381;-38
2022/06/25 07:19:58;;;;;;;0.20;0.10;;;24.50;99.90;;;;;;4976396;28;95258;-37
2022/06/25 07:22:24;;;;;;;0.25;0.25;;;24.40;99.90;;;;;;4977117;28;94336;-36
2022/06/25 07:24:51;;;;;;;0.20;0.00;;;24.60;99.90;;;;;;4977466;28;93158;-35
2022/06/25 07:27:17;;;;;;;0.25;0.05;;;24.80;99.90;;;;;;4977448;28;93521;-40
2022/06/25 07:29:43;;;;;;;0.20;0.00;;;24.90;99.90;;;;;;4976294;28;96423;-35
2022/06/25 07:32:10;;;;;;;0.20;0.08;;;24.90;99.90;;;;;;4975406;28;95655;-35
2022/06/25 07:34:36;;;;;;;0.20;0.00;;;24.40;99.90;;;;;;4976762;28;93892;-35
2022/06/25 07:37:02;;;;;;;0.40;0.35;;;24.60;99.90;;;;;;4976930;28;94580;-37
2022/06/25 07:39:27;;;;;;;2.90;0.17;;;24.70;99.90;;;;;;4977382;28;95057;-37
2022/06/25 07:41:53;;;;;;;0.20;0.00;;;25.00;99.90;;;;;;4976409;28;94839;-39
2022/06/25 07:44:19;;;;;;;0.20;0.00;;;25.40;99.90;;;;;;4977753;28;94305;-34
2022/06/25 07:46:45;;;;;;;0.20;0.10;;;25.40;99.90;;;;;;4976600;28;92597;-34
2022/06/25 07:49:10;;;;;;;0.43;0.35;;;25.60;99.90;;;;;;4977132;28;94325;-38
2022/06/25 07:54:20;;;;;;;0.20;0.00;;;25.80;99.90;;;;;;4978088;28;95107;-36
2022/06/25 07:56:46;;;;;;;0.20;0.00;;;25.90;99.90;;;;;;4978423;28;92649;-36
2022/06/25 07:59:12;;;;;;;0.20;0.00;;;25.80;99.90;;;;;;4977473;28;94593;-37
2022/06/25 08:01:38;;;;;;;0.32;0.32;;;25.80;99.90;;;;;;4977522;28;95708;-35
2022/06/25 08:04:03;;;;;;;0.20;0.00;;;25.90;99.90;;;;;;4979175;28;94117;-35
2022/06/25 08:06:30;;;;;;;0.20;0.00;;;25.80;99.90;;;;;;4977317;28;93762;-38
2022/06/25 08:08:56;;;;;;;0.20;0.00;;;25.90;99.90;;;;;;4978762;28;97659;-34
2022/06/25 08:11:22;;;;;;;0.30;0.30;;;26.10;99.90;;;;;;4978062;28;95253;-35
2022/06/25 08:13:48;;;;;;;0.30;0.28;;;26.10;99.90;;;;;;4978260;28;93206;-34
2022/06/25 08:16:13;;;;;;;0.47;0.43;;;26.20;99.90;;;;;;4978133;28;93120;-35
2022/06/25 08:18:39;;;;;;;0.20;0.10;;;26.20;99.90;;;;;;4977843;28;95528;-35
2022/06/25 08:21:06;;;;;;;0.22;0.08;;;26.40;99.90;;;;;;4978665;28;95461;-36
2022/06/25 08:23:32;;;;;;;0.45;0.45;;;26.50;99.90;;;;;;4978249;28;93339;-40
2022/06/25 08:25:57;;;;;;;0.40;0.30;;;26.70;99.90;;;;;;4978150;28;95003;-34
2022/06/25 08:28:24;;;;;;;0.30;0.20;;;26.60;99.90;;;;;;4978749;28;94842;-35
2022/06/25 08:30:50;;;;;;;0.30;0.10;;;26.60;99.90;;;;;;4977738;28;94614;-35
2022/06/25 08:33:15;;;;;;;0.20;0.00;;;26.80;99.90;;;;;;4978276;28;92120;-36
2022/06/25 08:35:42;;;;;;;0.30;0.30;;;26.70;99.90;;;;;;4977488;28;91910;-37
2022/06/25 08:38:08;;;;;;;0.20;0.10;;;26.60;99.90;;;;;;4978106;28;94385;-39
2022/06/25 08:40:33;;;;;;;0.20;0.05;;;26.70;99.90;;;;;;4977620;28;95923;-36
2022/06/25 08:43:00;;;;;;;0.20;0.10;;;26.00;99.90;;;;;;4977828;28;94510;-35
2022/06/25 08:45:26;;;;;;;0.20;0.05;;;26.00;99.90;;;;;;4978173;28;94157;-39
2022/06/25 08:47:52;;;;;;;0.20;0.20;;;26.10;99.90;;;;;;4976634;28;95048;-36
2022/06/25 08:50:21;;;;;;;0.20;0.00;;;26.30;99.90;;;;;;4977716;28;95405;-39
2022/06/25 08:52:49;;;;;;;1.75;1.08;;;26.50;99.90;;;;;;4977865;28;94275;-36
2022/06/25 08:55:20;;;;;;;0.20;0.00;;;26.10;99.90;;;;;;4978305;28;93473;-35
2022/06/25 08:57:46;;;;;;;0.38;0.22;;;26.00;99.90;;;;;;4977446;28;95398;-36
2022/06/25 09:00:12;;;;;;;0.45;0.45;;;26.10;99.90;;;;;;4978967;28;93643;-35
2022/06/25 09:02:39;;;;;;;0.50;0.15;;;26.30;99.90;;;;;;4977546;28;93713;-36
2022/06/25 09:05:08;;;;;;;0.52;0.35;;;25.80;99.90;;;;;;4977264;28;94188;-34
2022/06/25 09:07:34;;;;;;;0.45;0.45;;;25.70;99.90;;;;;;4977336;28;94378;-36
2022/06/25 09:10:00;;;;;;;0.20;0.13;;;25.50;99.90;;;;;;4977379;28;97505;-34
2022/06/25 09:12:25;;;;;;;0.20;0.13;;;25.50;99.90;;;;;;4959806;28;92992;-37
2022/06/25 09:14:51;;;;;;;0.60;0.20;;;25.30;99.90;;;;;;4977420;28;94125;-35
2022/06/25 09:17:16;;;;;;;0.20;0.00;;;25.00;99.90;;;;;;4976956;28;94739;-34
2022/06/25 09:19:47;;;;;;;0.20;0.10;;;25.20;99.90;;;;;;4977539;28;94620;-37
2022/06/25 09:22:21;;;;;;;0.40;0.40;;;25.20;99.90;;;;;;4977768;28;92210;-36
2022/06/25 09:24:58;;;;;;;4.18;0.75;;;25.10;99.90;;;;;;4977102;28;93873;-36
2022/06/25 09:27:36;;;;;;;0.20;0.00;;;25.20;99.90;;;;;;4959034;28;93347;-35
2022/06/25 09:30:12;;;;;;;;;;;25.10;99.90;;;;;;4977919;28;94759;-34
2022/06/25 09:32:45;;;;;;;1.10;1.10;;;25.20;99.90;;;;;;4978329;28;94550;-38
2022/06/25 09:35:12;;;;;;;0.32;0.32;;;25.60;99.90;;;;;;4976656;28;93552;-37
2022/06/25 09:37:39;;;;;;;0.20;0.00;;;25.70;99.90;;;;;;4977218;28;93404;-36
2022/06/25 09:40:05;;;;;;;0.20;0.03;;;25.70;99.90;;;;;;4976711;28;95228;-35
2022/06/25 09:42:32;;;;;;;0.20;0.10;;;25.40;99.90;;;;;;4977753;28;94607;-35
2022/06/25 09:45:05;;;;;;;0.28;0.08;;;25.30;99.90;;;;;;4977281;28;93299;-36
2022/06/25 09:47:34;;;;;;;0.77;0.52;;;25.20;99.90;;;;;;4976879;28;95552;-34
2022/06/25 09:50:13;;;;;;;0.20;0.10;;;25.50;99.90;;;;;;4976984;28;94275;-35
2022/06/25 09:52:59;;;;;;;0.52;0.52;;;25.60;99.90;;;;;;4977178;28;94853;-36
2022/06/25 09:55:28;;;;;;;0.30;0.15;;;25.60;99.90;;;;;;4977382;28;95114;-34
2022/06/25 09:57:54;;;;;;;0.30;0.28;;;25.60;99.90;;;;;;4976328;28;95794;-36
2022/06/25 10:00:22;;;;;;;0.30;0.30;;;25.70;99.90;;;;;;4976953;28;95373;-37
2022/06/25 10:02:48;;;;;;;;;;;25.60;99.90;;;;;;4976989;28;93767;-35
2022/06/25 10:05:17;;;;;;;0.20;0.00;;;25.40;99.90;;;;;;4977435;28;93203;-36
2022/06/25 10:10:32;;;;;;;0.43;0.20;;;25.50;99.90;;;;;;4976953;28;94676;-36
2022/06/25 10:13:00;;;;;;;0.63;0.30;;;25.80;99.90;;;;;;4977120;28;93883;-37
2022/06/25 10:15:27;;;;;;;0.20;0.13;;;25.70;99.90;;;;;;4976828;28;93235;-35
2022/06/25 10:17:53;;;;;;;0.30;0.20;;;25.50;99.90;;;;;;4976660;28;95030;-36
2022/06/25 10:20:20;;;;;;;0.20;0.17;;;25.50;99.90;;;;;;4976488;28;94233;-38
2022/06/25 10:22:49;;;;;;;0.47;0.17;;;25.30;99.90;;;;;;4976321;28;94569;-36
2022/06/25 10:25:23;;;;;;;0.20;0.10;;;25.20;99.90;;;;;;4976307;28;94297;-36
2022/06/25 10:27:51;;;;;;;0.32;0.32;;;25.40;99.90;;;;;;4976553;28;94564;-35
2022/06/25 10:30:47;;;;;;;0.50;0.40;;;25.40;99.90;;;;;;4979676;28;94272;-36
2022/06/25 10:33:15;;;;;;;0.20;0.00;;;25.50;99.90;;;;;;4980802;28;93538;-36
2022/06/25 10:35:41;;;;;;;0.20;0.10;;;25.50;99.90;;;;;;4979391;28;93123;-38
2022/06/25 10:38:10;;;;;;;0.20;0.00;;;25.70;99.90;;;;;;4980158;28;94892;-39
2022/06/25 10:40:52;;;;;;;0.60;0.20;;;25.70;99.90;;;;;;4979342;28;94305;-37
2022/06/25 10:43:41;;;;;;;0.20;0.10;;;25.50;99.90;;;;;;4979977;28;93046;-37
2022/06/25 10:46:23;;;;;;;0.20;0.17;;;25.70;99.90;;;;;;4979607;28;92082;-35
2022/06/25 10:48:51;;;;;;;0.20;0.10;;;25.70;99.90;;;;;;4979665;28;97144;-34
2022/06/25 10:51:44;;;;;;;4.85;0.63;;;25.40;99.90;;;;;;4979098;28;95487;-38
2022/06/25 10:54:25;;;;;;;0.20;0.03;;;25.20;99.90;;;;;;4980072;28;92638;-37
2022/06/25 10:56:57;;;;;;;0.20;0.10;;;25.00;99.90;;;;;;4979111;28;93008;-35
2022/06/25 10:59:34;;;;;;;0.20;0.20;;;24.80;99.90;;;;;;4980106;28;94788;-36
2022/06/25 11:02:08;;;;;;;1.65;0.17;;;24.90;99.90;;;;;;4979583;28;94930;-34
2022/06/25 11:04:35;;;;;;;0.20;0.20;;;24.90;99.90;;;;;;4980406;28;92378;-37
2022/06/25 11:07:26;;;;;;;1.85;1.75;;;25.10;99.90;;;;;;4979182;28;92014;-36
2022/06/25 11:09:57;;;;;;;0.20;0.10;;;25.30;99.90;;;;;;4977592;28;93400;-39
2022/06/25 11:12:25;;;;;;;2.05;0.60;;;25.40;99.90;;;;;;4979664;28;94549;-35
2022/06/25 11:15:02;;;;;;;1.17;0.30;;;25.60;99.90;;;;;;4979432;28;94709;-34
2022/06/25 11:17:29;;;;;;;0.20;0.13;;;25.70;99.90;;;;;;4979168;28;92644;-35
2022/06/25 11:20:05;;;;;;;0.20;0.17;;;25.80;99.90;;;;;;4978452;28;95192;-38
2022/06/25 11:22:30;;;;;;;0.20;0.10;;;25.90;99.90;;;;;;4979207;28;94243;-35
2022/06/25 11:30:25;;;;;;;0.20;0.00;;;25.70;99.90;;;;;;4979195;28;94900;-34
2022/06/25 11:32:51;;;;;;;0.22;0.22;;;25.60;99.90;;;;;;4979243;28;94468;-35
2022/06/25 11:35:17;;;;;;;0.25;0.17;;;25.90;99.90;;;;;;4979498;28;92798;-35
2022/06/25 11:37:42;;;;;;;0.20;0.15;;;26.10;99.90;;;;;;4978324;28;94683;-35
2022/06/25 11:40:15;;;;;;;0.20;0.00;;;25.90;99.90;;;;;;4978547;28;95955;-33
2022/06/25 11:42:42;;;;;;;0.22;0.13;;;25.90;98.20;;;;;;4977841;28;95171;-35
2022/06/25 11:45:09;;;;;;;0.20;0.00;;;25.90;99.90;;;;;;4979440;28;93722;-36
2022/06/25 11:47:36;;;;;;;0.20;0.00;;;26.00;99.90;;;;;;4961639;28;94357;-36
2022/06/25 11:50:09;;;;;;;0.20;0.00;;;25.90;99.90;;;;;;4978214;28;94740;-37
2022/06/25 11:52:40;;;;;;;0.20;0.00;;;25.80;97.30;;;;;;4978232;28;94035;-36
2022/06/25 11:55:08;;;;;;;0.20;0.00;;;25.60;99.90;;;;;;4978959;28;93575;-37
2022/06/25 11:57:41;;;;;;;0.20;0.00;;;25.60;99.90;;;;;;4979660;28;92530;-37
2022/06/25 12:00:09;;;;;;;0.20;0.00;;;25.60;99.90;;;;;;4978476;28;94747;-36
2022/06/25 12:02:35;;;;;;;0.20;0.00;;;25.50;96.00;;;;;;4978457;28;94626;-38
2022/06/25 12:05:02;;;;;;;0.20;0.05;;;25.50;99.90;;;;;;4978249;28;94845;-35
2022/06/25 12:07:33;;;;;;;0.20;0.15;;;25.50;99.90;;;;;;4978465;28;93108;-38
2022/06/25 12:10:08;;;;;;;0.20;0.00;;;25.20;99.90;;;;;;4977770;28;94918;-34
2022/06/25 12:12:34;;;;;;;0.40;0.20;;;25.30;99.90;;;;;;4978160;28;94241;-38
2022/06/25 12:15:01;;;;;;;0.20;0.20;;;25.80;99.90;;;;;;4978688;28;93232;-34
2022/06/25 12:17:35;;;;;;;0.22;0.22;;;26.00;94.90;;;;;;4978179;28;94405;-35
2022/06/25 12:20:12;;;;;;;0.30;0.30;;;25.80;99.90;;;;;;4978252;28;94677;-34
2022/06/25 12:22:50;;;;;;;0.55;0.55;;;25.50;99.90;;;;;;4978697;28;94917;-37
2022/06/25 12:25:27;;;;;;;0.30;0.20;;;25.30;99.90;;;;;;4979042;28;93125;-35
2022/06/25 12:27:52;;;;;;;0.20;0.00;;;25.60;99.90;;;;;;4978278;28;94277;-34
2022/06/25 12:30:22;;;;;;;0.20;0.10;;;25.50;98.00;;;;;;4992227;28;95573;-36
2022/06/25 12:32:48;;;;;;;0.20;0.10;;;25.50;99.90;;;;;;4978001;28;95866;-33
2022/06/25 12:35:19;;;;;;;0.20;0.00;;;25.30;99.90;;;;;;4977928;28;94207;-38
2022/06/25 12:38:08;;;;;;;0.25;0.10;;;25.30;99.90;;;;;;4978094;28;92711;-36
2022/06/25 12:40:38;;;;;;;0.20;0.10;;;25.20;98.40;;;;;;4976678;28;94810;-38
2022/06/25 12:43:06;;;;;;;0.20;0.00;;;25.10;94.30;;;;;;4975379;28;94709;-34
2022/06/25 12:45:32;;;;;;;0.30;0.13;;;24.90;99.70;;;;;;4975758;28;93729;-36
2022/06/25 12:47:58;;;;;;;0.20;0.00;;;24.80;99.90;;;;;;4976069;28;91863;-38
2022/06/25 12:50:26;;;;;;;0.20;0.10;;;24.80;99.90;;;;;;4976726;28;94028;-35
2022/06/25 12:52:53;;;;;;;0.20;0.10;;;24.70;99.90;;;;;;4974578;28;94522;-35
2022/06/25 12:55:28;;;;;;;0.20;0.00;;;24.70;99.90;;;;;;4975616;28;95153;-39
2022/06/25 12:57:53;;;;;;;0.75;0.75;;;24.80;99.90;;;;;;4976080;28;93763;-36
2022/06/25 13:00:26;;;;;;;0.20;0.10;;;24.80;99.90;;;;;;4975787;28;96357;-36
2022/06/25 13:02:52;;;;;;;0.20;0.10;;;24.70;99.90;;;;;;4975593;28;94213;-37